Terminal Aerodrome Forecast
Issued by NWS

Home | Current Version | Previous Version | Text Only | Print | Product List | Glossary On
Versions: 1 2 3 4 5 6 7 8 9 10 11 12 13 14 15 16 17 18 19
667
FTUS46 KSTO 170535
TAFRDD
TAF
KRDD 170535Z 1706/1806 VRB03KT P6SM BKN050
      TEMPO 1712/1715 4SM BR
     FM172000 17003KT P6SM OVC250
     FM180400 25003KT 6SM BR OVC050=

USA.gov is the U.S. government's official web portal to all federal, state and local government web resources and services.